To NAV CANADA Home Page Login to a new session Search on AWWS site Feedback and Comments Disclaimer Vers la page française équivalente Tips FAQ What's new on the site To the Forecasts and Observations / NOTAM section To "File a Flight Plan" website Publications and other links Update of the User's profile FIC Telephone Numbers My Weather Data Folder Route Weather Data Regional Weather Data Local Weather Data To the Forecasts and Observations / NOTAM section
Request Generated 05/25/2017 at 01:14:51 UTC . Weather information available at that time is displayed.

METAR/TAF

GOOSE BAY/NL    

METAR CYYR 250100Z 05006KT 15SM FEW050 FEW250 02/M02 A3001 RMK SC1CI1 SLP167=
METAR CYYR 250000Z 06005KT 15SM FEW050 04/M02 A3000 RMK SC1 SLP161=
METAR CYYR 242300Z 05007KT 15SM FEW050 05/M02 A2999 RMK SC2 SLP157=

TAF CYYR 242330Z 2500/2524 04008KT P6SM FEW050
FM250200 VRB03KT P6SM SCT015 BKN030 TEMPO 2502/2515 BKN015 OVC030
BECMG 2510/2512 26008KT
FM251500 26008KT P6SM SCT040
BECMG 2519/2521 31010KT
RMK NXT FCST BY 250600Z=
Your time UTC time
Weather data provided by Environment Canada and NAV CANADA